Austin Reinauer — WCX8055 — position and weather

sailwx.info

Track history (hours):
 
Tides and Currents Weather Stations Pressure Air Temp Water Temp Dewpoint Dewpoint Depression Visibility Wind Speed Wind Dir Waves Ship Positions

Austin Reinauer

Owner: REINAUER TRANSPORTATION CO, LP, STATEN ISLAND, NY. More information available from US FCC via Universal Licensing System and Coast Guard Vessel Documentation Center.

Last reported at 2017-Feb-21 18:25 UTC. Time now 2017-Feb-21 19:05 UTC.
Position N 40°38' W 074°08'.

Length 33 m; draft 6.7 m.

Type: . MMSI: 366739920.

Date/timePositionNaut miles runAvg speedWind from/ knotsBaromVisibWave heightAir tempDewpointWater temp
2017-Feb-21 18:25N 40°38' W 074°08'4 4.5
2017-Feb-21 17:32N 40°39' W 074°03'1 1.4
2017-Feb-21 16:31N 40°40' W 074°01'0 0.0
2017-Feb-21 15:31N 40°40' W 074°01'0 0.0
2017-Feb-21 14:31N 40°40' W 074°01'1 1.5
2017-Feb-21 13:32N 40°39' W 074°03'0 0.0
2017-Feb-21 12:32N 40°39' W 074°03'0 0.1
2017-Feb-21 11:32N 40°39' W 074°03'0 0.2
2017-Feb-21 10:32N 40°40' W 074°03'0 0.1
2017-Feb-21 09:32N 40°40' W 074°03'0 0.1
2017-Feb-21 08:32N 40°40' W 074°03'0 0.1
2017-Feb-21 07:32N 40°40' W 074°03'0 0.1
2017-Feb-21 06:32N 40°39' W 074°03'1 1.5
2017-Feb-21 05:33N 40°39' W 074°04'1 0.7
2017-Feb-21 04:32N 40°39' W 074°05'0 0.0
2017-Feb-21 03:32N 40°39' W 074°05'0 0.0
2017-Feb-21 02:32N 40°39' W 074°05'1 1.3
2017-Feb-21 01:33N 40°39' W 074°04'1 0.9
2017-Feb-21 00:32N 40°39' W 074°03'0 0.0
2017-Feb-20 23:32N 40°39' W 074°03'0 0.0
2017-Feb-20 22:32N 40°39' W 074°03'0 0.1
2017-Feb-20 21:31N 40°39' W 074°03'0 0.0
2017-Feb-20 20:31N 40°39' W 074°03'0 0.0
2017-Feb-20 19:31N 40°39' W 074°03'0 0.0
2017-Feb-20 18:31N 40°39' W 074°03'0 0.0
2017-Feb-20 17:31N 40°39' W 074°03'0 0.0
2017-Feb-20 16:32N 40°39' W 074°03'0 0.0
2017-Feb-20 15:32N 40°39' W 074°03'0 0.0
2017-Feb-20 14:32N 40°39' W 074°03'0 0.0
2017-Feb-20 13:32N 40°39' W 074°03'0 0.0
2017-Feb-20 12:32N 40°39' W 074°03'0 0.0
2017-Feb-20 11:32N 40°39' W 074°03'0 0.0
2017-Feb-20 10:34N 40°39' W 074°03'0 0.1
2017-Feb-20 09:33N 40°39' W 074°03'0 0.1
2017-Feb-20 08:33N 40°40' W 074°03'0 0.0
2017-Feb-20 07:33N 40°40' W 074°03'3 3.2
2017-Feb-20 06:33N 40°36' W 074°03'10 9.6
2017-Feb-20 05:32N 40°29' W 073°54'131 9.3
2017-Feb-19 15:31N 41°31' W 071°21'7 7.3
2017-Feb-19 14:33N 41°37' W 071°17'5 0.5
2017-Feb-19 04:24N 41°40' W 071°12'0 0.0
2017-Feb-19 03:25N 41°40' W 071°12'0 0.0
2017-Feb-19 02:31N 41°40' W 071°12'0 0.0
2017-Feb-19 00:27N 41°40' W 071°12'0 0.0
2017-Feb-18 21:03N 41°40' W 071°12'0 0.0
2017-Feb-18 20:33N 41°40' W 071°12'128 6.9
2017-Feb-18 02:08N 40°30' W 073°34'7 9.3
2017-Feb-18 01:24N 40°29' W 073°43'10 9.1
2017-Feb-18 00:19N 40°27' W 073°55'16 7.7
2017-Feb-17 22:16N 40°31' W 074°15'2 0.3
2017-Feb-17 15:15N 40°33' W 074°15'0 0.0
2017-Feb-17 14:21N 40°33' W 074°15'0 0.0
2017-Feb-17 09:12N 40°33' W 074°15'5 7.3
2017-Feb-17 08:33N 40°37' W 074°12'4 3.8
2017-Feb-17 07:33N 40°38' W 074°08'0 0.0
2017-Feb-17 06:33N 40°38' W 074°08'0 0.0
2017-Feb-17 05:33N 40°38' W 074°08'5 5.4
2017-Feb-17 04:33N 40°40' W 074°01'0 0.0
2017-Feb-17 03:33N 40°40' W 074°01'0 0.0
2017-Feb-17 02:33N 40°40' W 074°01'4 4.4
2017-Feb-17 01:33N 40°39' W 074°07'0 0.0
2017-Feb-17 00:26N 40°39' W 074°07'4 4.8
2017-Feb-16 23:33N 40°38' W 074°12'6 1.9
2017-Feb-16 20:20N 40°32' W 074°15'4 4.2
2017-Feb-16 19:25N 40°30' W 074°11'6 7.3
2017-Feb-16 18:33N 40°29' W 074°03'7 6.3
2017-Feb-16 17:31N 40°35' W 074°01'0 0.0
2017-Feb-16 16:31N 40°35' W 074°01'0 0.0
2017-Feb-16 15:31N 40°35' W 074°01'0 0.0
2017-Feb-16 14:31N 40°36' W 074°01'0 0.0
2017-Feb-16 13:31N 40°35' W 074°01'0 0.0
2017-Feb-16 12:28N 40°35' W 074°01'0 0.0
2017-Feb-16 11:31N 40°35' W 074°01'0 0.0
2017-Feb-16 10:31N 40°35' W 074°01'0 0.0
2017-Feb-16 09:31N 40°35' W 074°01'0 0.0
2017-Feb-16 08:31N 40°35' W 074°01'0 0.0
2017-Feb-16 07:31N 40°35' W 074°01'0 0.0
2017-Feb-16 06:31N 40°35' W 074°01'0 0.0
2017-Feb-16 05:31N 40°36' W 074°01'0 0.0
2017-Feb-16 04:28N 40°35' W 074°01'0 0.0
2017-Feb-16 03:28N 40°35' W 074°01'0 0.0
2017-Feb-16 02:31N 40°35' W 074°01'0 0.0
2017-Feb-16 01:28N 40°35' W 074°01'0 0.0
2017-Feb-16 00:31N 40°35' W 074°01'0 0.0
2017-Feb-15 23:33N 40°35' W 074°01'0 0.0
2017-Feb-15 22:33N 40°35' W 074°01'0 0.0
2017-Feb-15 21:33N 40°35' W 074°01'0 0.0
2017-Feb-15 20:33N 40°35' W 074°01'0 0.0
2017-Feb-15 19:33N 40°35' W 074°01'0 0.0
2017-Feb-15 18:33N 40°35' W 074°01'0 0.1
2017-Feb-15 17:33N 40°36' W 074°02'4 3.5
2017-Feb-15 16:33N 40°39' W 074°02'7 7.3
2017-Feb-15 15:33N 40°46' W 073°57'4 3.9
2017-Feb-15 14:31N 40°48' W 073°53'49 9.3
2017-Feb-15 09:17N 41°11' W 072°56'  
2017-Feb-12 05:26N 40°57' W 073°33'8 8.7
2017-Feb-12 04:33N 40°54' W 073°42'8 7.7
2017-Feb-12 03:33N 40°48' W 073°49'8 7.8
2017-Feb-12 02:33N 40°45' W 073°58'7 7.3
2017-Feb-12 01:34N 40°39' W 074°04'1 0.6
2017-Feb-12 00:33N 40°39' W 074°05'0 0.0
2017-Feb-11 23:33N 40°39' W 074°05'0 0.0
2017-Feb-11 22:34N 40°39' W 074°05'0 0.0
2017-Feb-11 21:33N 40°39' W 074°05'0 0.0
2017-Feb-11 20:34N 40°39' W 074°05'0 0.0
2017-Feb-11 19:33N 40°39' W 074°05'0 0.0
2017-Feb-11 18:34N 40°39' W 074°05'  
Track history (hours):
 
Tides and Currents Weather Stations Pressure Air Temp Water Temp Dewpoint Dewpoint Depression Visibility Wind Speed Wind Dir Waves Ship Positions

Austin Reinauer

Owner: REINAUER TRANSPORTATION CO, LP, STATEN ISLAND, NY. More information available from US FCC via Universal Licensing System and Coast Guard Vessel Documentation Center.

Last reported at 2017-Feb-21 18:25 UTC. Time now 2017-Feb-21 19:05 UTC.
Position N 40°38' W 074°08'.

Length 33 m; draft 6.7 m.

Type: . MMSI: 366739920.

Date/timePositionNaut miles runAvg speedWind from/ knotsBaromVisibWave heightAir tempDewpointWater temp
2017-Feb-21 18:25N 40°38' W 074°08'4 4.5
2017-Feb-21 17:32N 40°39' W 074°03'1 1.4
2017-Feb-21 16:31N 40°40' W 074°01'0 0.0
2017-Feb-21 15:31N 40°40' W 074°01'0 0.0
2017-Feb-21 14:31N 40°40' W 074°01'1 1.5
2017-Feb-21 13:32N 40°39' W 074°03'0 0.0
2017-Feb-21 12:32N 40°39' W 074°03'0 0.1
2017-Feb-21 11:32N 40°39' W 074°03'0 0.2
2017-Feb-21 10:32N 40°40' W 074°03'0 0.1
2017-Feb-21 09:32N 40°40' W 074°03'0 0.1
2017-Feb-21 08:32N 40°40' W 074°03'0 0.1
2017-Feb-21 07:32N 40°40' W 074°03'0 0.1
2017-Feb-21 06:32N 40°39' W 074°03'1 1.5
2017-Feb-21 05:33N 40°39' W 074°04'1 0.7
2017-Feb-21 04:32N 40°39' W 074°05'0 0.0
2017-Feb-21 03:32N 40°39' W 074°05'0 0.0
2017-Feb-21 02:32N 40°39' W 074°05'1 1.3
2017-Feb-21 01:33N 40°39' W 074°04'1 0.9
2017-Feb-21 00:32N 40°39' W 074°03'0 0.0
2017-Feb-20 23:32N 40°39' W 074°03'0 0.0
2017-Feb-20 22:32N 40°39' W 074°03'0 0.1
2017-Feb-20 21:31N 40°39' W 074°03'0 0.0
2017-Feb-20 20:31N 40°39' W 074°03'0 0.0
2017-Feb-20 19:31N 40°39' W 074°03'0 0.0
2017-Feb-20 18:31N 40°39' W 074°03'0 0.0
2017-Feb-20 17:31N 40°39' W 074°03'0 0.0
2017-Feb-20 16:32N 40°39' W 074°03'0 0.0
2017-Feb-20 15:32N 40°39' W 074°03'0 0.0
2017-Feb-20 14:32N 40°39' W 074°03'0 0.0
2017-Feb-20 13:32N 40°39' W 074°03'0 0.0
2017-Feb-20 12:32N 40°39' W 074°03'0 0.0
2017-Feb-20 11:32N 40°39' W 074°03'0 0.0
2017-Feb-20 10:34N 40°39' W 074°03'0 0.1
2017-Feb-20 09:33N 40°39' W 074°03'0 0.1
2017-Feb-20 08:33N 40°40' W 074°03'0 0.0
2017-Feb-20 07:33N 40°40' W 074°03'3 3.2
2017-Feb-20 06:33N 40°36' W 074°03'10 9.6
2017-Feb-20 05:32N 40°29' W 073°54'131 9.3
2017-Feb-19 15:31N 41°31' W 071°21'7 7.3
2017-Feb-19 14:33N 41°37' W 071°17'5 0.5
2017-Feb-19 04:24N 41°40' W 071°12'0 0.0
2017-Feb-19 03:25N 41°40' W 071°12'0 0.0
2017-Feb-19 02:31N 41°40' W 071°12'0 0.0
2017-Feb-19 00:27N 41°40' W 071°12'0 0.0
2017-Feb-18 21:03N 41°40' W 071°12'0 0.0
2017-Feb-18 20:33N 41°40' W 071°12'128 6.9
2017-Feb-18 02:08N 40°30' W 073°34'7 9.3
2017-Feb-18 01:24N 40°29' W 073°43'10 9.1
2017-Feb-18 00:19N 40°27' W 073°55'16 7.7
2017-Feb-17 22:16N 40°31' W 074°15'2 0.3
2017-Feb-17 15:15N 40°33' W 074°15'0 0.0
2017-Feb-17 14:21N 40°33' W 074°15'0 0.0
2017-Feb-17 09:12N 40°33' W 074°15'5 7.3
2017-Feb-17 08:33N 40°37' W 074°12'4 3.8
2017-Feb-17 07:33N 40°38' W 074°08'0 0.0
2017-Feb-17 06:33N 40°38' W 074°08'0 0.0
2017-Feb-17 05:33N 40°38' W 074°08'5 5.4
2017-Feb-17 04:33N 40°40' W 074°01'0 0.0
2017-Feb-17 03:33N 40°40' W 074°01'0 0.0
2017-Feb-17 02:33N 40°40' W 074°01'4 4.4
2017-Feb-17 01:33N 40°39' W 074°07'0 0.0
2017-Feb-17 00:26N 40°39' W 074°07'4 4.8
2017-Feb-16 23:33N 40°38' W 074°12'6 1.9
2017-Feb-16 20:20N 40°32' W 074°15'4 4.2
2017-Feb-16 19:25N 40°30' W 074°11'6 7.3
2017-Feb-16 18:33N 40°29' W 074°03'7 6.3
2017-Feb-16 17:31N 40°35' W 074°01'0 0.0
2017-Feb-16 16:31N 40°35' W 074°01'0 0.0
2017-Feb-16 15:31N 40°35' W 074°01'0 0.0
2017-Feb-16 14:31N 40°36' W 074°01'0 0.0
2017-Feb-16 13:31N 40°35' W 074°01'0 0.0
2017-Feb-16 12:28N 40°35' W 074°01'0 0.0
2017-Feb-16 11:31N 40°35' W 074°01'0 0.0
2017-Feb-16 10:31N 40°35' W 074°01'0 0.0
2017-Feb-16 09:31N 40°35' W 074°01'0 0.0
2017-Feb-16 08:31N 40°35' W 074°01'0 0.0
2017-Feb-16 07:31N 40°35' W 074°01'0 0.0
2017-Feb-16 06:31N 40°35' W 074°01'0 0.0
2017-Feb-16 05:31N 40°36' W 074°01'0 0.0
2017-Feb-16 04:28N 40°35' W 074°01'0 0.0
2017-Feb-16 03:28N 40°35' W 074°01'0 0.0
2017-Feb-16 02:31N 40°35' W 074°01'0 0.0
2017-Feb-16 01:28N 40°35' W 074°01'0 0.0
2017-Feb-16 00:31N 40°35' W 074°01'0 0.0
2017-Feb-15 23:33N 40°35' W 074°01'0 0.0
2017-Feb-15 22:33N 40°35' W 074°01'0 0.0
2017-Feb-15 21:33N 40°35' W 074°01'0 0.0
2017-Feb-15 20:33N 40°35' W 074°01'0 0.0
2017-Feb-15 19:33N 40°35' W 074°01'0 0.0
2017-Feb-15 18:33N 40°35' W 074°01'0 0.1
2017-Feb-15 17:33N 40°36' W 074°02'4 3.5
2017-Feb-15 16:33N 40°39' W 074°02'7 7.3
2017-Feb-15 15:33N 40°46' W 073°57'4 3.9
2017-Feb-15 14:31N 40°48' W 073°53'49 9.3
2017-Feb-15 09:17N 41°11' W 072°56'  
2017-Feb-12 05:26N 40°57' W 073°33'8 8.7
2017-Feb-12 04:33N 40°54' W 073°42'8 7.7
2017-Feb-12 03:33N 40°48' W 073°49'8 7.8
2017-Feb-12 02:33N 40°45' W 073°58'7 7.3
2017-Feb-12 01:34N 40°39' W 074°04'1 0.6
2017-Feb-12 00:33N 40°39' W 074°05'0 0.0
2017-Feb-11 23:33N 40°39' W 074°05'0 0.0
2017-Feb-11 22:34N 40°39' W 074°05'0 0.0
2017-Feb-11 21:33N 40°39' W 074°05'0 0.0
2017-Feb-11 20:34N 40°39' W 074°05'0 0.0
2017-Feb-11 19:33N 40°39' W 074°05'0 0.0
2017-Feb-11 18:34N 40°39' W 074°05'  

Dump ship's entire track history